AirNav   Air Wisconsin pilot careers
 
 1591 users online  

KPOH Pocahontas Municipal Airport
Pocahontas, Iowa, USA

GOING TO POCAHONTAS?


FAA INFORMATION EFFECTIVE 26 APRIL 2018

Location

FAA Identifier: POH
Lat/Long: 42-44-34.4000N / 094-38-50.5000W
42-44.573333N / 094-38.841667W
42.7428889 / -94.6473611
(estimated)
Elevation: 1225.5 ft. / 373.5 m (surveyed)
Variation: 02E (2010)
From city: 1 mile NE of POCAHONTAS, IA
Time zone: UTC -5 (UTC -6 during Standard Time)
Zip code: 50574

Airport Operations

Airport use: Open to the public
Activation date: 04/1940
Control tower: no
ARTCC: MINNEAPOLIS CENTER
FSS: FORT DODGE FLIGHT SERVICE STATION
NOTAMs facility: FOD (NOTAM-D service available)
Attendance: UNATNDD
FOR SVC CALL SHERIFFS OFFICE (712) 335-3308.
Wind indicator: lighted
Segmented circle: yes
Lights: ACTVT MIRL RY 12/30; PAPI RYS 12 & 30; REIL RYS 12 & 30 - CTAF.
Beacon: white-green (lighted land airport)
Operates sunset to sunrise.

Airport Communications

CTAF/UNICOM: 122.8
  • APCH/DEP SVC PROVIDED BY MINNEAPOLIS ARTCC ON FREQS 134.0/288.3 (FORT DODGE RCAG).

Nearby radio navigation aids

VOR radial/distance  VOR name  Freq  Var
FODr290/17.4FORT DODGE VORTAC113.5007E
SPWr131/35.0SPENCER VOR/DME110.0005E

 
NDB name  Hdg/Dist  Freq  Var  ID
POCAHONTASat field42802EPOH .--. --- ....
EMMETSBURG169/21.641004EEGQ . --. --.-
SAC CITY030/26.335604ESKI ... -.- ..
PUFF173/36.734501EPUF .--. ..- ..-.
WEBSTER CITY295/38.832303EEBS . -... ...
CLARION267/39.138703ECAV -.-. .- ...-

Airport Services

Fuel available: 100LL
Parking: hangars and tiedowns
Airframe service: NONE
Powerplant service: NONE
Bottled oxygen: NONE
Bulk oxygen: NONE

Runway Information

Runway 12/30

Dimensions: 4100 x 60 ft. / 1250 x 18 m
Surface: asphalt, in excellent condition
Weight bearing capacity: 
Single wheel: 15.0
Runway edge lights: medium intensity
RUNWAY 12  RUNWAY 30
Latitude: 42-44.742647N42-44.390550N
Longitude: 094-39.273460W094-38.492360W
Elevation: 1225.5 ft.1221.0 ft.
Gradient: 0.1%0.1%
Traffic pattern: leftleft
Runway heading: 119 magnetic, 121 true299 magnetic, 301 true
Markings: nonprecision, in good conditionnonprecision, in good condition
Visual slope indicator: 2-light PAPI on left (3.00 degrees glide path)2-light PAPI on left (3.00 degrees glide path)
Runway end identifier lights: yesyes
Touchdown point: yes, no lightsyes, no lights
Obstructions: 40 ft. tree, 849 ft. from runway, 239 ft. left of centerline, 16:1 slope to clear15 ft. road, 520 ft. from runway, 295 ft. right of centerline, 21:1 slope to clear

Runway 18/36

Dimensions: 1999 x 135 ft. / 609 x 41 m
Surface: turf, in fair condition
Runway edge markings: RWY 18 /36 MARKED WITH YELLOW CONES
Gradient: N
RUNWAY 18  RUNWAY 36
Latitude: 42-44.752270N42-44.424180N
Longitude: 094-38.742010W094-38.775770W
Elevation: 1224.1 ft.1218.3 ft.
Gradient: 0.2%0.3% UP
Traffic pattern: leftleft
Runway heading: 183 magnetic, 185 true003 magnetic, 005 true
Touchdown point: yes, no lightsyes, no lights
Obstructions: 19 ft. road, 405 ft. from runway, 21:1 slope to clearnone

Airport Ownership and Management from official FAA records

Ownership: Publicly-owned
Owner: CITY OF POCAHONTAS
CITY HALL 23 WEST ELM
POCAHONTAS, IA 50574
Phone 712-335-4841
Manager: GARY MC CARTAN
51217 - 225TH AVENUE
POCAHONTAS, IA 50574
Phone 712-335-4382
OFFICE NUMBER 712-335-4382

Airport Operational Statistics

Aircraft based on the field: 17
Single engine airplanes: 16
Helicopters: 1
    
Aircraft operations: avg 86/week *
57% transient general aviation
43% local general aviation
* for 12-month period ending 02 September 2015

Additional Remarks

RY 30 IS CALM WIND RY.

Instrument Procedures

NOTE: All procedures below are presented as PDF files. If you need a reader for these files, you should download the free Adobe Reader.

NOT FOR NAVIGATION. Please procure official charts for flight.
FAA instrument procedures published for use from 26 April 2018 at 901Z to 24 May 2018 at 0900Z.

 
IAPs - Instrument Approach Procedures
RNAV (GPS) RWY 12   download (186KB)
RNAV (GPS) RWY 30   download (205KB)
VOR/DME RWY 30   download (184KB)
NDB RWY 12   download (160KB)
NOTE: Special Take-Off Minimums/Departure Procedures apply   download (158KB)

Other nearby airports with instrument procedures:

KEGQ - Emmetsburg Municipal Airport (22 nm N)
KFOD - Fort Dodge Regional Airport (23 nm SE)
KAXA - Algona Municipal Airport (26 nm NE)
KSKI - Sac City Municipal Airport (26 nm SW)
KSLB - Storm Lake Municipal Airport (28 nm W)
 
Loc | Ops | Rwys | IFR | FBO | Links
Com | Nav | Svcs | Stats | Notes

AirNav Hotels Sweepstakes
 
Area around KPOH (Pocahontas Municipal Airport)
 
Road maps at: MapQuest Bing Google
 
Aerial photo
No photo
 
Sectional chart

 
Airport distance calculator
Flying to Pocahontas Municipal Airport? Find the distance to fly.

From to KPOH

Sunrise and sunset
Times for 21-May-2018
 Local
(UTC-5)
 Zulu
(UTC)
Morning civil twilight05:1810:18
Sunrise05:5110:51
Sunset20:3901:39
Evening civil twilight21:1202:12

Current date and time
Zulu (UTC)  21-May-2018 18:38:38
Local (UTC-5)  21-May-2018 13:38:38
 
METAR
KFOD 
25nm SE 
211756Z AUTO 00000KT 7SM OVC007 16/14 A3003 RMK AO2 SLP196 60000 T01610139 10161 20133 58005
KAXA 
26nm NE 
211815Z AUTO 18004KT 7SM SCT008 16/15 A3003 RMK AO2
KSLB 
27nm W 
211815Z AUTO 00000KT 4SM BR CLR 16/16 A3003 RMK AO2
KSPW 
36nm NW 
211753Z AUTO 16005KT 8SM OVC005 16/14 A3003 RMK AO2 SLP170 T01560139 10161 20133 56005
KCAV 
39nm E 
211815Z AUTO 14003KT 8SM OVC007 16/14 A3003 RMK AO2 PWINO
KEBS 
40nm SE 
211815Z AUTO 00000KT 10SM OVC009 16/15 A3001 RMK AO2
KEST 
40nm N 
211752Z AUTO 17004KT 9SM OVC007 16/14 A3003 RMK AO2 SLP167 T01560139 10156 20122 56009
KCKP 
40nm W 
211815Z AUTO 22003KT 7SM OVC009 17/16 A3003 RMK AO2 T01650156
KCIN 
43nm S 
211815Z AUTO 26004KT 6SM HZ OVC011 A3002 RMK AO2
TAF
KFOD 
25nm SE 
211736Z 2118/2218 VRB03KT P6SM VCSH OVC008 FM212000 VRB03KT P6SM BKN012 FM220000 04004KT P6SM BKN030 FM220300 VRB03KT P6SM SCT030 FM220900 VRB03KT 1SM BR SCT008 FM221100 VRB03KT 1SM BR BKN003 FM221400 VRB03KT 4SM BR BKN020 FM221500 17004KT P6SM SCT040
NOTAMs
Click for the latest NOTAMs
NOTAMs are issued by the DoD/FAA and will open in a separate window not controlled by AirNav.

 

 
 

FBO, Fuel Providers, and Aircraft Ground Support

  
 Business Name 
 
 Contact 
 
 Services / Description 
 
Fuel Prices
 
Comments
  
City of Pocahontas 712-335-4841
no information available

If you are affiliated with City of Pocahontas and would like to show here your services, contact info, web link, logo, and more, click here
100LL
SS $4.25 
 Updated 21-May-2018
 
   1 read write
SS=Self service
Update Fuel Prices
 

Would you like to see your business listed on this page?

 If your business provides an interesting product or service to pilots, flight crews, aircraft, or users of the Pocahontas Municipal Airport, you should consider listing it here.  To start the listing process, click on the button below
 
Add a business
 

Other Pages about Pocahontas Municipal Airport

Page from the Iowa Airport Directory
 
Update a link
 
Copyright © AirNav, LLC. All rights reserved. Privacy Policy  Contact